Time;durP1;ratioP1;P1;durP2;ratioP2;P2;SDS_P1;SDS_P2;PMS_P1;PMS_P2;Temp;Humidity;BMP_temperature;BMP_pressure;BME280_temperature;BME280_humidity;BME280_pressure;Samples;Min_cycle;Max_cycle;Signal;HPM_P1;HPM_P2
2023/01/18 00:01:35;;;;;;;4.40;1.67;;;;;;;8.52;62.93;95752.28;4424774;32;20146;-83
2023/01/18 00:04:00;;;;;;;4.05;1.50;;;;;;;8.57;63.06;95750.06;4431521;32;20445;-82
2023/01/18 00:06:26;;;;;;;6.28;1.70;;;;;;;8.66;62.93;95736.88;4430120;32;20104;-82
2023/01/18 00:08:53;;;;;;;4.97;1.70;;;;;;;8.62;62.98;95730.28;4426075;32;20085;-84
2023/01/18 00:11:19;;;;;;;6.87;1.90;;;;;;;8.68;63.07;95718.37;4420899;32;20789;-85
2023/01/18 00:13:45;;;;;;;6.05;1.95;;;;;;;8.81;62.94;95708.34;4423812;32;20093;-85
2023/01/18 00:16:16;;;;;;;6.70;1.98;;;;;;;8.80;62.98;95693.56;4431669;32;20181;-85
2023/01/18 00:18:42;;;;;;;5.95;2.08;;;;;;;8.84;63.15;95680.97;4421115;32;20085;-82
2023/01/18 00:21:10;;;;;;;7.82;2.33;;;;;;;8.54;63.79;95677.72;4409623;32;20115;-84
2023/01/18 00:23:36;;;;;;;6.80;2.30;;;;;;;8.77;63.23;95672.03;4422500;32;20109;-84
2023/01/18 00:26:03;;;;;;;5.95;2.25;;;;;;;8.85;62.89;95672.97;4435983;32;20166;-84
2023/01/18 00:28:29;;;;;;;5.47;2.03;;;;;;;8.90;62.79;95656.75;4429393;32;20504;-85
2023/01/18 00:30:54;;;;;;;6.85;2.20;;;;;;;8.95;62.72;95669.44;4433269;32;20094;-84
2023/01/18 00:33:20;;;;;;;7.03;2.45;;;;;;;8.97;62.74;95693.75;4425275;32;20125;-83
2023/01/18 00:36:01;;;;;;;6.70;2.40;;;;;;;8.98;62.78;95705.88;4433134;32;20097;-84
2023/01/18 00:38:27;;;;;;;6.37;2.37;;;;;;;9.03;62.83;95725.47;4416129;32;20455;-86
2023/01/18 00:40:52;;;;;;;7.85;2.55;;;;;;;9.07;62.84;95749.63;4410911;32;20102;-84
2023/01/18 00:46:02;;;;;;;7.62;2.53;;;;;;;9.09;62.88;95800.19;4426614;32;20122;-85
2023/01/18 00:48:28;;;;;;;10.98;4.30;;;;;;;9.06;63.09;95803.13;4428309;32;20090;-84
2023/01/18 00:50:53;;;;;;;11.80;5.03;;;;;;;9.10;63.04;95801.84;4430197;32;20370;-85
2023/01/18 00:53:18;;;;;;;14.52;6.78;;;;;;;8.42;66.30;95817.91;4422310;32;20181;-84
2023/01/18 00:55:44;;;;;;;16.60;7.68;;;;;;;9.00;64.72;95814.19;4436834;32;20105;-84
2023/01/18 00:58:09;;;;;;;19.65;7.65;;;;;;;8.97;64.98;95815.31;4415807;32;20102;-85
2023/01/18 01:00:35;;;;;;;17.65;7.95;;;;;;;9.11;65.11;95808.75;4430813;32;20111;-87
2023/01/18 01:03:00;;;;;;;16.85;7.93;;;;;;;8.99;66.18;95804.69;4424879;32;20381;-86
2023/01/18 01:08:16;;;;;;;15.18;7.53;;;;;;;9.10;66.74;95808.87;4429844;32;20541;-88
2023/01/18 01:10:46;;;;;;;15.93;7.18;;;;;;;9.00;67.55;95812.41;4402885;32;20106;-85
2023/01/18 01:27:03;;;;;;;14.43;6.82;;;;;;;8.94;68.77;95768.34;4414204;32;20117;-84
2023/01/18 01:29:29;;;;;;;15.73;7.20;;;;;;;8.98;68.09;95764.47;4434621;32;20109;-84
2023/01/18 01:31:54;;;;;;;14.68;7.28;;;;;;;9.28;67.08;95759.84;4401030;32;20434;-84
2023/01/18 01:34:20;;;;;;;14.38;7.15;;;;;;;9.10;67.49;95759.84;4431852;32;20107;-84
2023/01/18 01:36:45;;;;;;;15.48;7.35;;;;;;;9.33;67.01;95772.50;4427815;32;20089;-87
2023/01/18 01:39:17;;;;;;;14.70;7.25;;;;;;;8.99;68.47;95794.19;4441899;32;20093;-96
2023/01/18 01:41:43;;;;;;;15.98;7.18;;;;;;;9.33;67.28;95799.63;4408535;32;20103;-95
2023/01/18 01:44:18;;;;;;;17.25;8.30;;;;;;;9.34;67.19;95798.63;4409934;32;20121;-90
2023/01/18 01:46:56;;;;;;;15.43;7.70;;;;;;;8.96;68.35;95818.09;4408537;32;20086;-90
2023/01/18 01:50:07;;;;;;;15.57;7.82;;;;;;;9.28;67.61;95812.38;4414310;32;20050;-96
2023/01/18 01:52:35;;;;;;;14.27;6.70;;;;;;;9.41;67.07;95807.59;4382065;32;20170;-90
2023/01/18 01:55:10;;;;;;;17.27;8.20;;;;;;;9.12;67.73;95820.91;4378039;32;20178;-91
2023/01/18 01:57:39;;;;;;;15.88;7.72;;;;;;;9.17;67.68;95823.09;4377923;32;20107;-91
2023/01/18 02:00:11;;;;;;;16.30;7.97;;;;;;;9.25;67.21;95824.00;4522828;27;20126;-95
2023/01/18 02:02:37;;;;;;;15.85;7.62;;;;;;;9.16;67.59;95816.19;4377966;32;20091;-95
2023/01/18 02:05:04;;;;;;;15.93;8.77;;;;;;;9.35;66.83;95809.97;4365495;32;20106;-96
2023/01/18 02:07:31;;;;;;;15.52;8.40;;;;;;;8.83;68.54;95813.22;4381934;32;20526;-96
2023/01/18 02:09:56;;;;;;;14.48;7.93;;;;;;;9.34;66.95;95816.22;4378661;32;20480;-95
2023/01/18 02:12:22;;;;;;;16.30;7.72;;;;;;;9.26;67.16;95811.69;4377843;32;20429;-96
2023/01/18 02:14:48;;;;;;;16.90;8.32;;;;;;;9.04;67.79;95805.91;4364560;32;20126;-92
2023/01/18 02:17:27;;;;;;;17.33;8.05;;;;;;;9.21;67.00;95822.66;4377634;32;20491;-92
2023/01/18 02:20:26;;;;;;;15.30;7.68;;;;;;;9.17;67.33;95836.22;4377980;32;20177;-92
2023/01/18 02:23:22;;;;;;;15.57;7.83;;;;;;;8.55;68.66;95862.22;4374151;32;20086;-92
2023/01/18 02:25:50;;;;;;;15.30;7.57;;;;;;;9.00;67.85;95869.34;4394981;32;20175;-91
2023/01/18 02:28:20;;;;;;;16.70;8.18;;;;;;;8.68;68.18;95875.03;4403256;32;20117;-91
2023/01/18 02:30:57;;;;;;;17.05;8.27;;;;;;;9.01;67.77;95856.06;4409495;32;20059;-85
2023/01/18 02:33:43;;;;;;;17.05;8.38;;;;;;;9.17;67.03;95858.03;4464319;27;20088;-96
2023/01/18 02:36:14;;;;;;;16.48;7.82;;;;;;;9.22;66.61;95853.19;4478167;27;20098;-96
2023/01/18 02:38:43;;;;;;;17.83;7.62;;;;;;;9.33;66.28;95860.06;4418975;32;20082;-96
2023/01/18 02:41:23;;;;;;;14.60;7.75;;;;;;;9.25;66.54;95863.41;4416745;32;20147;-96
2023/01/18 02:46:45;;;;;;;14.27;7.22;;;;;;;9.20;66.50;95856.94;4367904;32;20138;-96
2023/01/18 02:49:17;;;;;;;13.80;6.87;;;;;;;9.25;65.98;95841.56;4370047;32;20138;-96
2023/01/18 02:51:43;;;;;;;14.02;6.60;;;;;;;9.32;65.71;95842.62;4372259;32;20056;-96
2023/01/18 02:54:10;;;;;;;14.55;6.80;;;;;;;9.13;66.21;95851.44;4367392;32;20133;-96
2023/01/18 02:56:41;;;;;;;16.80;7.00;;;;;;;9.28;65.65;95854.41;4372193;32;20103;-96
2023/01/18 02:59:20;;;;;;;14.48;6.60;;;;;;;9.35;65.40;95858.09;4369650;32;20148;-96
2023/01/18 03:01:54;;;;;;;16.00;6.87;;;;;;;9.43;65.14;95858.19;4366708;32;20077;-96
2023/01/18 03:04:54;;;;;;;14.73;6.87;;;;;;;9.08;66.00;95858.94;4369405;32;20153;-96
2023/01/18 03:07:33;;;;;;;14.35;7.05;;;;;;;9.07;65.83;95843.34;4343044;33;20104;-96
2023/01/18 03:10:02;;;;;;;14.80;7.10;;;;;;;9.17;65.47;95836.22;4352858;33;20118;-96
2023/01/18 03:12:44;;;;;;;13.77;6.70;;;;;;;8.82;66.49;95848.28;4350901;32;20115;-96
2023/01/18 03:15:31;;;;;;;14.48;6.30;;;;;;;8.99;65.72;95836.19;4349291;33;20092;-96
2023/01/18 03:17:59;;;;;;;13.65;6.20;;;;;;;9.07;65.40;95846.78;4349929;33;20157;-96
2023/01/18 03:20:29;;;;;;;12.43;5.90;;;;;;;9.21;64.88;95837.56;4336247;33;20976;-96
2023/01/18 03:25:53;;;;;;;15.18;7.03;;;;;;;9.10;65.05;95838.63;4388656;32;20171;-87
2023/01/18 03:37:36;;;;;;;64.78;11.05;;;;;;;9.20;64.93;95843.81;4418027;27;20120;-96
2023/01/18 03:40:13;;;;;;;16.58;7.40;;;;;;;9.14;65.18;95832.09;4338020;33;20100;-96
2023/01/18 03:42:45;;;;;;;15.93;7.90;;;;;;;9.12;65.30;95826.16;4345737;32;20139;-96
2023/01/18 03:45:27;;;;;;;16.30;7.65;;;;;;;9.19;65.03;95834.28;4375449;32;20138;-96
2023/01/18 03:47:53;;;;;;;16.52;7.40;;;;;;;9.24;64.97;95834.66;4389291;32;20059;-96
2023/01/18 03:50:52;;;;;;;14.77;6.60;;;;;;;9.25;65.08;95833.66;4373921;32;20115;-87
2023/01/18 03:56:20;;;;;;;14.80;6.60;;;;;;;9.10;65.03;95837.78;4506874;27;20114;-96
2023/01/18 04:01:21;;;;;;;15.07;7.87;;;;;;;9.33;64.42;95822.41;4896075;27;20111;-96
2023/01/18 04:03:46;;;;;;;15.45;7.70;;;;;;;9.31;64.51;95835.72;4375949;32;20087;-96
2023/01/18 04:06:12;;;;;;;16.08;8.07;;;;;;;9.38;64.65;95846.47;4365300;32;20148;-96
2023/01/18 04:08:37;;;;;;;15.43;7.60;;;;;;;9.43;64.74;95852.91;4367228;32;20105;-96
2023/01/18 04:11:02;;;;;;;17.67;8.40;;;;;;;9.48;64.72;95854.28;4380255;32;20095;-96
2023/01/18 04:13:28;;;;;;;15.20;7.70;;;;;;;9.49;64.79;95859.38;4368194;32;20125;-96
2023/01/18 04:15:53;;;;;;;15.93;7.68;;;;;;;9.57;64.62;95856.81;4365004;32;20162;-96
2023/01/18 04:18:19;;;;;;;15.52;7.05;;;;;;;9.51;64.53;95856.63;4365499;32;20110;-95
2023/01/18 04:20:44;;;;;;;14.55;6.80;;;;;;;8.72;66.11;95871.94;4364066;32;20150;-96
2023/01/18 04:23:10;;;;;;;14.35;6.25;;;;;;;9.39;64.46;95848.13;4364068;32;20432;-95
2023/01/18 04:25:39;;;;;;;13.60;6.03;;;;;;;9.43;64.15;95841.59;4370377;32;20060;-96
2023/01/18 04:30:48;;;;;;;11.65;4.82;;;;;;;9.48;63.89;95823.56;4366511;32;20448;-93
2023/01/18 04:33:14;;;;;;;13.00;5.72;;;;;;;9.50;63.70;95828.66;4364107;32;20113;-92
2023/01/18 04:35:39;;;;;;;13.05;6.05;;;;;;;9.57;63.23;95827.09;4363737;32;20087;-92
2023/01/18 04:38:05;;;;;;;13.75;5.87;;;;;;;9.57;62.63;95829.72;4363135;32;20455;-92
2023/01/18 04:40:30;;;;;;;13.43;5.37;;;;;;;9.34;63.19;95863.50;4363927;32;20127;-92
2023/01/18 04:42:56;;;;;;;12.48;5.53;;;;;;;9.39;63.39;95869.13;4363570;32;20109;-93
2023/01/18 04:45:21;;;;;;;12.35;4.93;;;;;;;9.44;63.45;95872.97;4375020;32;20099;-92
2023/01/18 04:47:46;;;;;;;13.77;5.05;;;;;;;9.48;63.61;95883.19;4362975;32;20083;-93
2023/01/18 04:50:12;;;;;;;13.65;5.35;;;;;;;9.49;63.78;95888.28;4363964;32;20103;-93
2023/01/18 04:52:37;;;;;;;12.93;4.90;;;;;;;9.44;63.76;95883.50;4363383;32;20511;-95
2023/01/18 04:55:03;;;;;;;11.80;4.82;;;;;;;9.21;64.33;95884.84;4363976;32;20153;-96
2023/01/18 04:57:29;;;;;;;12.70;4.50;;;;;;;9.43;63.90;95878.37;4375558;32;20083;-96
2023/01/18 04:59:54;;;;;;;12.60;4.18;;;;;;;9.50;63.94;95878.59;4364640;32;20141;-95
2023/01/18 05:02:20;;;;;;;12.37;4.30;;;;;;;9.54;63.83;95885.19;4363959;32;20083;-95
2023/01/18 05:04:45;;;;;;;10.85;4.10;;;;;;;9.47;63.78;95886.78;4363924;32;20087;-96
2023/01/18 05:07:10;;;;;;;11.68;4.62;;;;;;;9.57;63.66;95893.63;4375594;32;20150;-96
2023/01/18 05:09:36;;;;;;;11.45;4.10;;;;;;;9.48;63.67;95917.34;4366248;32;20125;-94
2023/01/18 05:12:02;;;;;;;11.00;3.83;;;;;;;9.54;63.54;95922.84;4377222;32;20141;-96
2023/01/18 05:14:27;;;;;;;10.73;3.65;;;;;;;9.64;63.35;95928.03;4367849;32;20451;-96
2023/01/18 05:16:52;;;;;;;7.82;2.05;;;;;;;9.47;63.61;95942.78;4378941;32;20103;-95
2023/01/18 05:19:18;;;;;;;5.85;1.73;;;;;;;9.59;63.14;95954.75;4365836;32;20083;-96
2023/01/18 05:21:43;;;;;;;4.70;1.30;;;;;;;9.41;63.26;95973.09;4371329;32;20098;-96
2023/01/18 05:24:09;;;;;;;4.65;1.45;;;;;;;8.35;65.91;95966.34;4397202;27;20096;-96
2023/01/18 05:26:35;;;;;;;4.43;1.25;;;;;;;9.10;63.64;95953.31;4369359;32;20137;-96
2023/01/18 05:29:00;;;;;;;4.70;1.30;;;;;;;9.22;62.68;95936.41;4379890;27;20071;-96
2023/01/18 05:31:26;;;;;;;3.75;1.10;;;;;;;9.13;62.45;95932.03;4367525;32;20118;-91
2023/01/18 05:33:52;;;;;;;3.65;1.30;;;;;;;8.23;64.59;95940.25;4362919;32;20451;-96
2023/01/18 05:36:17;;;;;;;3.47;1.08;;;;;;;8.16;64.12;95938.31;4370759;32;20088;-96
2023/01/18 05:38:43;;;;;;;2.85;1.10;;;;;;;7.95;65.03;95939.28;4367609;32;20087;-93
2023/01/18 05:41:08;;;;;;;3.22;1.08;;;;;;;7.96;64.05;95935.69;4362994;32;20271;-91
2023/01/18 05:43:33;;;;;;;2.72;0.90;;;;;;;7.50;65.19;95936.34;4368197;32;20079;-95
2023/01/18 05:45:59;;;;;;;1.95;0.85;;;;;;;7.37;65.47;95931.34;4363407;32;20087;-95
2023/01/18 05:48:25;;;;;;;2.35;0.90;;;;;;;6.98;66.70;95931.22;4363361;32;20094;-95
2023/01/18 05:50:51;;;;;;;3.22;1.10;;;;;;;6.93;66.90;95936.84;4364201;32;20102;-95
2023/01/18 05:53:18;;;;;;;4.95;1.33;;;;;;;7.16;66.44;95937.47;4364170;32;20466;-95
2023/01/18 05:55:53;;;;;;;3.85;1.17;;;;;;;7.07;66.60;95919.97;4376714;32;20104;-95
2023/01/18 05:58:18;;;;;;;3.35;1.00;;;;;;;6.67;68.22;95897.22;4376918;32;20083;-93
2023/01/18 06:00:43;;;;;;;2.58;0.90;;;;;;;7.47;65.69;95892.91;4390074;32;20117;-89
2023/01/18 06:03:09;;;;;;;2.70;0.80;;;;;;;7.00;66.69;95906.56;4374689;32;20098;-96
2023/01/18 06:05:34;;;;;;;3.17;0.90;;;;;;;6.45;68.13;95922.56;4369548;32;20389;-96
2023/01/18 06:08:00;;;;;;;4.65;1.25;;;;;;;7.39;65.70;95917.13;4368800;32;20091;-96
2023/01/18 06:10:26;;;;;;;4.18;1.30;;;;;;;7.48;65.45;95923.37;4366282;32;20363;-95
2023/01/18 06:12:51;;;;;;;3.75;1.15;;;;;;;7.75;64.69;95922.72;4365068;32;20502;-92
2023/01/18 06:15:16;;;;;;;4.35;1.30;;;;;;;7.96;64.29;95917.34;4364973;32;20106;-91
2023/01/18 06:17:44;;;;;;;2.90;1.00;;;;;;;8.03;64.31;95917.63;4365469;32;20151;-91
2023/01/18 06:20:11;;;;;;;;;;;;;;;8.07;64.31;95930.31;4367182;32;20121;-94
2023/01/18 06:22:36;;;;;;;3.58;1.17;;;;;;;8.22;63.99;95953.50;4390556;32;20413;-83
2023/01/18 06:25:02;;;;;;;4.07;1.10;;;;;;;8.24;63.93;95964.66;4365045;32;20102;-88
2023/01/18 06:27:28;;;;;;;3.47;1.12;;;;;;;8.40;63.77;95958.84;4365032;32;20139;-88
2023/01/18 06:29:53;;;;;;;4.22;1.10;;;;;;;8.43;63.44;95966.50;4364663;32;20446;-89
2023/01/18 06:32:18;;;;;;;3.80;1.20;;;;;;;8.46;63.48;95969.66;4371043;32;20103;-82
2023/01/18 06:34:44;;;;;;;3.22;1.00;;;;;;;8.51;63.05;95955.28;4364870;32;20458;-85
2023/01/18 06:37:09;;;;;;;3.47;1.10;;;;;;;8.52;62.83;95949.91;4364843;32;20412;-86
2023/01/18 06:39:35;;;;;;;4.60;1.27;;;;;;;8.42;62.44;95944.69;4364606;32;20087;-86
2023/01/18 06:42:00;;;;;;;5.82;1.55;;;;;;;8.36;62.00;95912.88;4364805;32;20067;-85
2023/01/18 06:44:26;;;;;;;4.05;1.08;;;;;;;8.27;61.87;95883.91;4364655;32;20122;-85
2023/01/18 06:46:51;;;;;;;4.53;1.20;;;;;;;8.14;62.31;95893.87;4364492;32;20120;-84
2023/01/18 06:49:17;;;;;;;4.00;1.30;;;;;;;8.27;62.10;95899.66;4364686;32;20355;-84
2023/01/18 06:51:42;;;;;;;5.80;1.58;;;;;;;8.42;62.19;95931.56;4363592;32;20106;-83
2023/01/18 06:54:08;;;;;;;6.53;1.60;;;;;;;8.50;62.36;95959.72;4364656;32;20155;-82
2023/01/18 06:56:33;;;;;;;4.50;1.58;;;;;;;8.55;62.63;95973.22;4364685;32;20376;-85
2023/01/18 06:58:59;;;;;;;5.00;1.80;;;;;;;8.68;62.46;95988.69;4363540;32;20103;-86
2023/01/18 07:01:25;;;;;;;5.03;1.80;;;;;;;8.70;62.53;95978.06;4364083;32;20094;-87
2023/01/18 07:03:51;;;;;;;5.55;1.62;;;;;;;8.65;62.37;95973.22;4348294;32;89797;-88
2023/01/18 07:06:17;;;;;;;5.53;1.60;;;;;;;8.54;62.43;95986.50;4360258;32;20380;-84
2023/01/18 07:08:42;;;;;;;6.10;1.75;;;;;;;8.61;62.07;96011.19;4363721;32;20095;-81
2023/01/18 07:11:11;;;;;;;5.45;1.58;;;;;;;8.60;61.90;96018.25;4350214;32;20153;-89
2023/01/18 07:13:42;;;;;;;6.03;2.00;;;;;;;8.06;62.73;96007.31;4363870;32;20118;-88
2023/01/18 07:16:16;;;;;;;5.93;1.67;;;;;;;7.65;64.13;95990.84;4362497;32;20165;-90
2023/01/18 07:18:44;;;;;;;7.15;2.20;;;;;;;7.98;63.64;95993.25;4361973;32;20145;-90
2023/01/18 07:21:09;;;;;;;6.68;2.00;;;;;;;8.11;63.09;96006.06;4361764;32;20055;-93
2023/01/18 07:23:37;;;;;;;7.18;2.12;;;;;;;7.97;62.84;96013.38;4364256;32;20113;-93
2023/01/18 07:26:17;;;;;;;4.50;1.58;;;;;;;7.68;63.64;96035.09;4362350;32;20128;-90
2023/01/18 07:28:43;;;;;;;4.43;1.20;;;;;;;8.13;62.24;96046.94;4373190;32;20095;-88
2023/01/18 07:31:09;;;;;;;6.00;1.60;;;;;;;7.66;61.60;96072.88;4358436;32;20091;-89
2023/01/18 07:33:35;;;;;;;4.55;1.40;;;;;;;7.88;61.76;96092.84;4363109;32;20438;-90
2023/01/18 07:36:03;;;;;;;5.72;1.70;;;;;;;7.72;62.44;96087.25;4363108;32;20196;-87
2023/01/18 07:38:29;;;;;;;5.40;1.62;;;;;;;7.92;61.90;96077.63;4363275;32;20475;-84
2023/01/18 07:41:10;;;;;;;5.50;1.70;;;;;;;7.29;62.87;96065.56;4364158;32;20144;-89
2023/01/18 07:43:38;;;;;;;5.82;1.65;;;;;;;7.39;62.96;96060.37;4362528;32;20079;-90
2023/01/18 07:46:05;;;;;;;6.25;1.70;;;;;;;7.54;62.24;96064.28;4373208;32;20773;-91
2023/01/18 07:48:31;;;;;;;5.07;1.60;;;;;;;7.32;62.99;96085.41;4362402;32;20099;-89
2023/01/18 07:50:58;;;;;;;4.85;1.33;;;;;;;7.54;62.38;96100.97;4363737;32;20131;-88
2023/01/18 07:53:25;;;;;;;4.07;1.30;;;;;;;7.57;61.94;96115.56;4362739;32;20086;-89
2023/01/18 07:55:51;;;;;;;3.95;1.17;;;;;;;7.92;61.60;96122.19;4363859;32;20463;-87
2023/01/18 07:58:17;;;;;;;2.92;0.90;;;;;;;7.69;61.67;96130.28;4364320;32;20122;-86
2023/01/18 08:00:43;;;;;;;3.28;0.95;;;;;;;6.93;63.60;96140.97;4365133;32;20091;-95
2023/01/18 08:03:13;;;;;;;3.17;1.00;;;;;;;7.80;62.40;96132.81;4364537;32;20325;-94
2023/01/18 08:05:40;;;;;;;2.33;1.02;;;;;;;7.93;62.30;96136.97;4364528;32;20225;-95
2023/01/18 08:08:10;;;;;;;3.83;1.30;;;;;;;8.04;61.96;96142.94;4373103;32;20100;-87
2023/01/18 08:10:36;;;;;;;4.80;1.30;;;;;;;7.58;62.90;96164.41;4349383;32;20126;-84
2023/01/18 08:13:01;;;;;;;4.18;1.20;;;;;;;7.26;63.04;96163.53;4347929;32;20075;-89
2023/01/18 08:15:28;;;;;;;3.70;1.17;;;;;;;8.03;62.01;96172.75;4347531;32;20146;-89
2023/01/18 08:17:54;;;;;;;2.83;1.05;;;;;;;8.36;61.35;96170.78;4347264;32;20152;-89
2023/01/18 08:20:20;;;;;;;4.18;1.40;;;;;;;7.62;63.01;96171.88;4347844;32;20122;-88
2023/01/18 08:22:46;;;;;;;3.00;0.90;;;;;;;7.62;62.91;96179.72;4347919;32;20517;-88
2023/01/18 08:25:12;;;;;;;3.28;1.05;;;;;;;8.17;62.27;96184.69;4348075;32;20092;-88
2023/01/18 08:27:37;;;;;;;3.20;1.10;;;;;;;7.81;62.67;96186.03;4372204;32;20404;-88
2023/01/18 08:30:04;;;;;;;2.95;1.00;;;;;;;7.67;62.96;96195.09;4348807;32;20087;-88
2023/01/18 08:32:30;;;;;;;8.00;2.10;;;;;;;7.72;63.13;96208.59;4349196;32;20464;-89
2023/01/18 08:34:55;;;;;;;4.10;1.30;;;;;;;7.97;62.43;96215.22;4349117;32;20181;-88
2023/01/18 08:37:22;;;;;;;3.22;1.20;;;;;;;8.04;62.09;96203.25;4348972;33;20088;-88
2023/01/18 08:39:49;;;;;;;4.12;1.23;;;;;;;7.66;63.26;96202.09;4348980;32;20079;-88
2023/01/18 08:42:14;;;;;;;3.58;1.00;;;;;;;7.52;63.20;96193.75;4349025;32;20075;-88
2023/01/18 08:44:40;;;;;;;3.67;1.10;;;;;;;7.91;62.68;96193.94;4372723;32;20130;-89
2023/01/18 08:47:05;;;;;;;2.60;0.80;;;;;;;7.31;63.65;96191.13;4349257;32;20349;-90
2023/01/18 08:49:31;;;;;;;3.05;1.10;;;;;;;7.14;64.72;96211.66;4349037;33;20107;-89
2023/01/18 08:51:57;;;;;;;3.30;1.20;;;;;;;6.81;65.61;96218.69;4349040;33;20369;-89
2023/01/18 08:54:23;;;;;;;2.22;0.90;;;;;;;7.55;63.86;96222.28;4349192;33;20141;-90
2023/01/18 08:56:50;;;;;;;2.83;0.93;;;;;;;7.68;62.76;96218.50;4349034;32;20096;-89
2023/01/18 08:59:15;;;;;;;4.37;1.27;;;;;;;8.23;62.62;96233.16;4348750;32;20088;-89
2023/01/18 09:01:41;;;;;;;3.00;0.90;;;;;;;8.04;62.72;96254.88;4348743;32;20075;-90
2023/01/18 09:04:06;;;;;;;2.85;1.00;;;;;;;7.67;63.03;96264.03;4348697;32;20384;-89
2023/01/18 09:06:32;;;;;;;3.67;1.17;;;;;;;8.22;61.89;96278.69;4348961;32;20145;-89
2023/01/18 09:08:58;;;;;;;2.67;0.90;;;;;;;8.38;61.73;96270.31;4348830;32;20087;-89
2023/01/18 09:11:24;;;;;;;1.73;0.82;;;;;;;7.97;61.58;96280.75;4348945;32;20071;-90
2023/01/18 09:13:53;;;;;;;2.85;1.00;;;;;;;8.10;61.69;96279.75;4348763;32;20467;-89
2023/01/18 09:16:19;;;;;;;2.20;0.80;;;;;;;8.13;61.25;96282.94;4348662;32;20122;-89
2023/01/18 09:18:45;;;;;;;3.35;1.58;;;;;;;8.19;61.69;96286.81;4348570;33;20114;-89
2023/01/18 09:21:12;;;;;;;3.08;1.00;;;;;;;8.02;62.95;96314.47;4348309;32;20079;-90
2023/01/18 09:23:39;;;;;;;4.97;1.17;;;;;;;8.10;62.94;96324.31;4349133;32;20099;-90
2023/01/18 09:26:15;;;;;;;1.08;0.68;;;;;;;7.95;63.35;96342.16;4350559;32;20118;-88
2023/01/18 09:28:47;;;;;;;2.83;1.05;;;;;;;8.25;61.86;96357.94;4350682;32;20135;-89
2023/01/18 09:31:13;;;;;;;2.83;0.90;;;;;;;8.11;61.66;96375.78;4350744;32;20087;-90
2023/01/18 09:33:41;;;;;;;3.67;1.08;;;;;;;8.17;62.39;96391.00;4350382;32;20111;-90
2023/01/18 09:36:08;;;;;;;1.80;0.80;;;;;;;8.32;61.22;96392.34;4350724;32;20091;-89
2023/01/18 09:38:35;;;;;;;2.75;1.00;;;;;;;8.34;61.71;96385.19;4374002;32;20517;-89
2023/01/18 09:41:01;;;;;;;2.57;1.07;;;;;;;7.96;63.09;96401.47;4350530;32;20079;-89
2023/01/18 09:43:37;;;;;;;2.80;1.08;;;;;;;7.78;63.57;96406.44;4350403;32;20130;-89
2023/01/18 09:46:04;;;;;;;3.22;1.20;;;;;;;8.37;62.47;96405.91;4350549;32;20129;-89
2023/01/18 09:48:36;;;;;;;3.55;1.20;;;;;;;8.65;61.53;96401.84;4373883;32;20118;-89
2023/01/18 09:51:08;;;;;;;3.50;1.20;;;;;;;8.05;62.75;96413.84;4350338;32;20397;-90
2023/01/18 09:53:45;;;;;;;3.30;1.08;;;;;;;8.17;62.65;96420.72;4361579;32;20107;-89
2023/01/18 09:56:17;;;;;;;3.90;1.20;;;;;;;7.85;63.22;96424.16;4373991;32;20104;-90
2023/01/18 09:59:01;;;;;;;4.93;1.27;;;;;;;7.65;64.30;96427.59;4349291;33;20091;-89
2023/01/18 10:01:32;;;;;;;4.72;1.12;;;;;;;7.32;65.03;96423.22;4350224;33;20345;-89
2023/01/18 10:04:01;;;;;;;2.20;0.98;;;;;;;8.31;62.58;96413.47;4349013;33;20114;-89
2023/01/18 10:06:52;;;;;;;3.95;1.25;;;;;;;8.45;62.04;96427.13;4349030;33;20183;-89
2023/01/18 10:09:21;;;;;;;4.20;1.33;;;;;;;8.33;63.30;96429.94;4373863;32;20084;-89
2023/01/18 10:11:58;;;;;;;3.78;1.10;;;;;;;8.92;62.21;96429.28;4373768;32;20099;-88
2023/01/18 10:14:42;;;;;;;3.45;1.23;;;;;;;8.68;62.14;96442.72;4350025;32;20103;-89
2023/01/18 10:17:12;;;;;;;4.53;1.40;;;;;;;8.79;62.13;96449.72;4350182;33;20099;-89
2023/01/18 10:19:39;;;;;;;5.00;1.40;;;;;;;9.05;60.98;96452.72;4350195;32;20092;-89
2023/01/18 10:22:15;;;;;;;4.47;1.40;;;;;;;8.27;63.22;96475.84;4348962;33;20130;-89
2023/01/18 10:24:54;;;;;;;5.22;1.65;;;;;;;8.83;61.66;96478.19;4348990;33;20187;-88
2023/01/18 10:27:22;;;;;;;;;;;;;;;8.63;62.11;96477.25;4350397;32;20108;-89
2023/01/18 10:29:50;;;;;;;7.30;1.50;;;;;;;9.00;61.78;96495.16;4349918;32;19998;-88
2023/01/18 10:32:18;;;;;;;4.25;1.58;;;;;;;8.05;62.58;96485.47;4349975;32;20083;-88
2023/01/18 10:34:48;;;;;;;6.30;1.52;;;;;;;8.67;61.49;96480.44;4348112;33;20182;-89
2023/01/18 10:37:36;;;;;;;6.35;1.90;;;;;;;8.69;61.47;96489.00;4349972;32;20129;-89
2023/01/18 10:40:04;;;;;;;5.18;1.60;;;;;;;8.58;61.58;96487.28;4350135;32;20099;-89
2023/01/18 10:42:37;;;;;;;4.70;1.73;;;;;;;8.65;61.08;96480.56;4349974;32;20440;-88
2023/01/18 10:45:02;;;;;;;6.95;1.92;;;;;;;8.11;62.26;96491.16;4348899;33;20103;-88
2023/01/18 10:47:28;;;;;;;4.82;1.65;;;;;;;8.40;61.76;96507.12;4350007;32;20133;-89
2023/01/18 10:49:58;;;;;;;6.55;2.17;;;;;;;8.43;62.34;96515.63;4373383;32;20095;-89
2023/01/18 10:52:29;;;;;;;6.72;2.30;;;;;;;8.51;62.31;96515.00;4350014;32;20444;-89
2023/01/18 10:55:00;;;;;;;7.25;2.20;;;;;;;8.51;61.55;96530.72;4349813;32;20116;-88
2023/01/18 10:57:36;;;;;;;6.60;2.15;;;;;;;7.97;63.30;96531.63;4349872;32;20460;-89
2023/01/18 11:00:11;;;;;;;7.60;2.22;;;;;;;8.50;62.36;96539.59;4348821;33;20217;-89
2023/01/18 11:02:37;;;;;;;7.53;2.22;;;;;;;8.82;61.53;96549.19;4348909;33;20365;-89
2023/01/18 11:05:36;;;;;;;7.62;2.33;;;;;;;8.79;61.42;96560.78;4348637;33;20504;-89
2023/01/18 11:08:25;;;;;;;7.87;2.00;;;;;;;9.07;61.29;96568.16;4373235;32;20134;-89
2023/01/18 11:11:20;;;;;;;8.02;2.28;;;;;;;9.26;61.36;96568.25;4373417;32;20254;-89
2023/01/18 11:13:47;;;;;;;7.22;2.25;;;;;;;9.39;60.98;96560.19;4350016;33;20146;-89
2023/01/18 11:16:13;;;;;;;6.35;2.10;;;;;;;9.22;61.60;96562.44;4349797;32;20162;-89
2023/01/18 11:19:02;;;;;;;6.65;2.28;;;;;;;8.64;62.11;96569.94;4349714;32;20095;-88
2023/01/18 11:21:39;;;;;;;7.37;2.22;;;;;;;8.45;63.24;96576.69;4349555;32;20087;-89
2023/01/18 11:24:33;;;;;;;7.55;2.60;;;;;;;8.92;61.92;96591.28;4372429;32;20083;-89
2023/01/18 11:26:58;;;;;;;7.28;2.47;;;;;;;9.36;60.92;96581.44;4349720;32;20167;-89
2023/01/18 11:29:28;;;;;;;7.40;2.65;;;;;;;9.31;61.28;96588.88;4349401;32;20110;-89
2023/01/18 11:31:53;;;;;;;8.13;2.50;;;;;;;8.92;61.87;96604.41;4348663;33;20448;-89
2023/01/18 11:34:24;;;;;;;7.87;2.35;;;;;;;9.30;60.95;96605.62;4373682;32;20083;-89
2023/01/18 11:36:50;;;;;;;7.45;2.37;;;;;;;9.53;60.30;96615.00;4349710;32;20126;-89
2023/01/18 11:39:24;;;;;;;7.57;2.62;;;;;;;8.71;62.22;96620.97;4349529;33;20087;-89
2023/01/18 11:41:50;;;;;;;8.05;2.42;;;;;;;9.01;61.35;96617.59;4349653;32;20095;-89
2023/01/18 11:44:25;;;;;;;8.10;2.60;;;;;;;8.54;62.65;96627.59;4349579;32;20138;-89
2023/01/18 11:46:52;;;;;;;6.95;2.42;;;;;;;9.22;61.07;96625.47;4360441;32;20138;-89
2023/01/18 11:49:41;;;;;;;8.13;2.40;;;;;;;9.09;60.88;96624.84;4348497;33;20186;-89
2023/01/18 11:52:52;;;;;;;7.77;2.60;;;;;;;8.62;61.91;96635.66;4348388;33;20091;-89
2023/01/18 11:55:46;;;;;;;7.20;2.30;;;;;;;9.22;60.32;96643.06;4334877;33;20119;-88
2023/01/18 11:58:27;;;;;;;6.80;2.15;;;;;;;9.26;60.37;96657.59;4347264;33;20162;-89
2023/01/18 12:01:20;;;;;;;7.72;2.40;;;;;;;9.23;59.91;96663.94;4347340;33;20202;-89
2023/01/18 12:04:13;;;;;;;8.70;2.50;;;;;;;9.46;59.29;96666.41;4318095;33;20100;-89
2023/01/18 12:07:07;;;;;;;8.27;2.30;;;;;;;9.91;58.63;96671.38;4317737;33;20452;-89
2023/01/18 12:09:58;;;;;;;6.57;2.25;;;;;;;9.94;58.23;96671.09;4317786;33;20127;-90
2023/01/18 12:12:39;;;;;;;9.40;2.53;;;;;;;9.71;59.07;96674.88;4317775;33;20135;-88
2023/01/18 12:15:32;;;;;;;7.03;2.17;;;;;;;9.69;58.25;96676.81;4317799;33;20520;-89
2023/01/18 12:18:20;;;;;;;8.40;2.53;;;;;;;9.81;58.09;96681.88;4317693;33;20164;-90
2023/01/18 12:21:24;;;;;;;8.15;2.20;;;;;;;9.05;60.26;96689.09;4317728;33;20210;-89
2023/01/18 12:23:50;;;;;;;10.45;2.65;;;;;;;9.83;58.64;96694.84;4303006;33;20560;-89
2023/01/18 12:26:41;;;;;;;7.22;2.45;;;;;;;9.99;57.39;96695.22;4303084;33;20123;-89
2023/01/18 12:29:11;;;;;;;6.70;2.05;;;;;;;9.53;58.04;96712.25;4302930;33;20531;-89
2023/01/18 12:31:56;;;;;;;6.40;2.15;;;;;;;9.33;58.97;96715.69;4291377;33;20227;-89
2023/01/18 12:34:24;;;;;;;6.55;2.45;;;;;;;9.95;57.58;96712.25;4274256;33;20148;-89
2023/01/18 12:37:05;;;;;;;5.55;1.80;;;;;;;10.17;55.46;96708.59;4262328;33;20203;-89